ROA1379 SAAR-SABE
Flight info
| Callsign | ROA1379 |
|---|---|
| Flight time | 0h 30m |
| Altitude | 23000 |
| Route | VASAL2C VASAL W20 MULTA W24 SNT SNT8Q |
| Aircraft | A319/M-SDE3FGHIRWY/LB1 |
Departure
| Time | 2026-04-30 05:56 |
|---|---|
| Airport | Rosario Islas Malvinas International Airport (SAAR) |
Arrival
| Time | 2026-04-30 06:27 |
|---|---|
| Airport | Aeroparque Jorge Newbery (SABE) |
| Time | Latitude | Longitude | Altitude | Speed | Heading |
|---|---|---|---|---|---|
| 2026-04-30 05:03 | -32.91622 | -60.78118 | 96 ft | 0 kts | 110° |
| 2026-04-30 05:45 | -32.91617 | -60.78134 | 97 ft | 3 kts | 110° |
| 2026-04-30 05:45 | -32.91610 | -60.78155 | 95 ft | 3 kts | 110° |
| 2026-04-30 05:45 | -32.91604 | -60.78176 | 94 ft | 3 kts | 110° |
| 2026-04-30 05:45 | -32.91600 | -60.78188 | 96 ft | 0 kts | 119° |
| 2026-04-30 05:46 | -32.91591 | -60.78205 | 95 ft | 3 kts | 146° |
| 2026-04-30 05:46 | -32.91573 | -60.78213 | 97 ft | 3 kts | 185° |
| 2026-04-30 05:46 | -32.91554 | -60.78211 | 95 ft | 3 kts | 191° |
| 2026-04-30 05:46 | -32.91537 | -60.78202 | 94 ft | 3 kts | 204° |
| 2026-04-30 05:47 | -32.91532 | -60.78199 | 94 ft | 0 kts | 204° |
| 2026-04-30 05:50 | -32.91545 | -60.78206 | 94 ft | 3 kts | 205° |
| 2026-04-30 05:50 | -32.91581 | -60.78224 | 96 ft | 8 kts | 203° |
| 2026-04-30 05:50 | -32.91614 | -60.78240 | 96 ft | 6 kts | 202° |
| 2026-04-30 05:50 | -32.91669 | -60.78266 | 95 ft | 11 kts | 201° |
| 2026-04-30 05:51 | -32.91726 | -60.78292 | 95 ft | 9 kts | 201° |
| 2026-04-30 05:51 | -32.91753 | -60.78341 | 95 ft | 8 kts | 256° |
| 2026-04-30 05:51 | -32.91767 | -60.78417 | 95 ft | 11 kts | 257° |
| 2026-04-30 05:51 | -32.91781 | -60.78486 | 97 ft | 8 kts | 256° |
| 2026-04-30 05:52 | -32.91795 | -60.78559 | 97 ft | 10 kts | 259° |
| 2026-04-30 05:52 | -32.91804 | -60.78636 | 95 ft | 7 kts | 282° |
| 2026-04-30 05:52 | -32.91786 | -60.78664 | 97 ft | 0 kts | 311° |
| 2026-04-30 05:53 | -32.91783 | -60.78669 | 95 ft | 2 kts | 311° |
| 2026-04-30 05:54 | -32.91763 | -60.78687 | 95 ft | 5 kts | 338° |
| 2026-04-30 05:54 | -32.91731 | -60.78684 | 95 ft | 2 kts | 338° |
| 2026-04-30 05:54 | -32.91720 | -60.78691 | 95 ft | 0 kts | 328° |
| 2026-04-30 05:55 | -32.91713 | -60.78696 | 95 ft | 2 kts | 328° |
| 2026-04-30 05:55 | -32.91691 | -60.78711 | 95 ft | 5 kts | 333° |
| 2026-04-30 05:55 | -32.91653 | -60.78727 | 95 ft | 7 kts | 341° |
| 2026-04-30 05:55 | -32.91599 | -60.78747 | 96 ft | 11 kts | 353° |
| 2026-04-30 05:56 | -32.91371 | -60.78698 | 98 ft | 70 kts | 11° |
| 2026-04-30 05:56 | -32.90648 | -60.78535 | 97 ft | 138 kts | 11° |
| 2026-04-30 05:56 | -32.89601 | -60.78313 | 530 ft | 155 kts | 10° |
| 2026-04-30 05:56 | -32.88529 | -60.78081 | 1187 ft | 163 kts | 12° |
| 2026-04-30 05:57 | -32.87330 | -60.77801 | 1597 ft | 187 kts | 11° |
| 2026-04-30 05:57 | -32.85967 | -60.77484 | 2032 ft | 212 kts | 11° |
| 2026-04-30 05:57 | -32.84493 | -60.76976 | 2675 ft | 229 kts | 31° |
| 2026-04-30 05:57 | -32.83472 | -60.75500 | 3542 ft | 237 kts | 72° |
| 2026-04-30 05:58 | -32.83474 | -60.73557 | 4418 ft | 242 kts | 111° |
| 2026-04-30 05:58 | -32.84337 | -60.71859 | 5260 ft | 250 kts | 132° |
| 2026-04-30 05:58 | -32.85566 | -60.70272 | 5796 ft | 272 kts | 135° |
| 2026-04-30 05:58 | -32.86908 | -60.68580 | 6657 ft | 281 kts | 135° |
| 2026-04-30 05:59 | -32.88248 | -60.66891 | 7573 ft | 286 kts | 136° |
| 2026-04-30 05:59 | -32.89621 | -60.65157 | 8523 ft | 290 kts | 137° |
| 2026-04-30 05:59 | -32.91011 | -60.63392 | 9459 ft | 294 kts | 138° |
| 2026-04-30 05:59 | -32.92419 | -60.61586 | 10314 ft | 302 kts | 138° |
| 2026-04-30 06:00 | -32.93903 | -60.59682 | 10661 ft | 326 kts | 137° |
| 2026-04-30 06:00 | -32.95488 | -60.57644 | 11185 ft | 342 kts | 137° |
| 2026-04-30 06:00 | -32.97117 | -60.55536 | 11950 ft | 349 kts | 137° |
| 2026-04-30 06:00 | -32.98770 | -60.53391 | 12757 ft | 354 kts | 137° |
| 2026-04-30 06:01 | -33.00449 | -60.51210 | 13561 ft | 360 kts | 137° |
| 2026-04-30 06:01 | -33.02158 | -60.48992 | 14283 ft | 365 kts | 137° |
| 2026-04-30 06:01 | -33.03891 | -60.46743 | 14961 ft | 371 kts | 138° |
| 2026-04-30 06:01 | -33.05650 | -60.44463 | 15626 ft | 377 kts | 138° |
| 2026-04-30 06:02 | -33.07442 | -60.42146 | 16288 ft | 383 kts | 139° |
| 2026-04-30 06:02 | -33.09257 | -60.39800 | 16953 ft | 388 kts | 139° |
| 2026-04-30 06:02 | -33.11105 | -60.37407 | 17615 ft | 394 kts | 139° |
| 2026-04-30 06:02 | -33.12982 | -60.34984 | 18268 ft | 400 kts | 139° |
| 2026-04-30 06:03 | -33.14887 | -60.32540 | 18839 ft | 405 kts | 140° |
| 2026-04-30 06:03 | -33.16816 | -60.30065 | 19449 ft | 409 kts | 140° |
| 2026-04-30 06:03 | -33.18760 | -60.27568 | 20082 ft | 412 kts | 140° |
| 2026-04-30 06:03 | -33.20715 | -60.25046 | 20710 ft | 415 kts | 140° |
| 2026-04-30 06:04 | -33.22682 | -60.22505 | 21335 ft | 419 kts | 140° |
| 2026-04-30 06:04 | -33.24670 | -60.19936 | 21957 ft | 422 kts | 140° |
| 2026-04-30 06:04 | -33.26669 | -60.17349 | 22566 ft | 426 kts | 140° |
| 2026-04-30 06:05 | -33.30693 | -60.12122 | 23034 ft | 422 kts | 140° |
| 2026-04-30 06:05 | -33.32656 | -60.09557 | 23041 ft | 416 kts | 140° |
| 2026-04-30 06:05 | -33.34602 | -60.07021 | 23043 ft | 414 kts | 140° |
| 2026-04-30 06:05 | -33.36553 | -60.04487 | 23042 ft | 413 kts | 140° |
| 2026-04-30 06:06 | -33.38505 | -60.01958 | 23041 ft | 413 kts | 140° |
| 2026-04-30 06:06 | -33.40454 | -59.99431 | 23041 ft | 413 kts | 140° |
| 2026-04-30 06:06 | -33.42401 | -59.96903 | 23046 ft | 413 kts | 140° |
| 2026-04-30 06:06 | -33.44323 | -59.94403 | 23042 ft | 413 kts | 140° |
| 2026-04-30 06:07 | -33.46265 | -59.91871 | 23047 ft | 413 kts | 140° |
| 2026-04-30 06:07 | -33.48211 | -59.89330 | 23044 ft | 413 kts | 140° |
| 2026-04-30 06:07 | -33.50156 | -59.86789 | 23048 ft | 413 kts | 140° |
| 2026-04-30 06:07 | -33.52100 | -59.84252 | 23048 ft | 413 kts | 140° |
| 2026-04-30 06:08 | -33.54045 | -59.81714 | 23046 ft | 413 kts | 140° |
| 2026-04-30 06:08 | -33.55987 | -59.79172 | 23046 ft | 413 kts | 140° |
| 2026-04-30 06:08 | -33.57928 | -59.76626 | 23047 ft | 413 kts | 140° |
| 2026-04-30 06:08 | -33.59869 | -59.74079 | 23045 ft | 414 kts | 140° |
| 2026-04-30 06:09 | -33.61810 | -59.71536 | 23050 ft | 414 kts | 140° |
| 2026-04-30 06:09 | -33.63757 | -59.68985 | 23048 ft | 414 kts | 140° |
| 2026-04-30 06:09 | -33.65687 | -59.66451 | 22846 ft | 408 kts | 140° |
| 2026-04-30 06:09 | -33.67588 | -59.63950 | 22589 ft | 403 kts | 140° |
| 2026-04-30 06:10 | -33.69471 | -59.61474 | 22337 ft | 401 kts | 140° |
| 2026-04-30 06:10 | -33.71346 | -59.59009 | 22047 ft | 397 kts | 140° |
| 2026-04-30 06:10 | -33.73206 | -59.56556 | 21552 ft | 396 kts | 140° |
| 2026-04-30 06:10 | -33.75065 | -59.54103 | 21069 ft | 396 kts | 140° |
| 2026-04-30 06:11 | -33.76924 | -59.51653 | 20561 ft | 396 kts | 140° |
| 2026-04-30 06:11 | -33.78781 | -59.49205 | 20065 ft | 396 kts | 140° |
| 2026-04-30 06:11 | -33.80649 | -59.46740 | 19564 ft | 396 kts | 140° |
| 2026-04-30 06:11 | -33.82520 | -59.44269 | 19060 ft | 396 kts | 139° |
| 2026-04-30 06:12 | -33.83773 | -59.42611 | 18728 ft | 397 kts | 139° |
| 2026-04-30 06:12 | -33.85630 | -59.40155 | 18205 ft | 395 kts | 139° |
| 2026-04-30 06:12 | -33.87459 | -59.37731 | 17693 ft | 387 kts | 139° |
| 2026-04-30 06:12 | -33.89241 | -59.35358 | 17221 ft | 376 kts | 139° |
| 2026-04-30 06:13 | -33.90970 | -59.33057 | 16767 ft | 366 kts | 139° |
| 2026-04-30 06:13 | -33.92660 | -59.30811 | 16329 ft | 357 kts | 139° |
| 2026-04-30 06:13 | -33.94313 | -59.28619 | 15900 ft | 350 kts | 139° |
| 2026-04-30 06:13 | -33.95945 | -59.26462 | 15474 ft | 351 kts | 139° |
| 2026-04-30 06:14 | -33.97603 | -59.24273 | 15032 ft | 352 kts | 139° |
| 2026-04-30 06:14 | -33.99252 | -59.22089 | 14609 ft | 353 kts | 139° |
| 2026-04-30 06:14 | -34.00901 | -59.19898 | 14178 ft | 354 kts | 139° |
| 2026-04-30 06:14 | -34.02549 | -59.17703 | 13746 ft | 349 kts | 138° |
| 2026-04-30 06:15 | -34.04149 | -59.15565 | 13328 ft | 338 kts | 138° |
| 2026-04-30 06:15 | -34.05701 | -59.13486 | 12938 ft | 330 kts | 138° |
| 2026-04-30 06:15 | -34.07242 | -59.11428 | 12535 ft | 330 kts | 138° |
| 2026-04-30 06:15 | -34.08777 | -59.09386 | 12135 ft | 329 kts | 138° |
| 2026-04-30 06:16 | -34.10316 | -59.07338 | 11725 ft | 329 kts | 137° |
| 2026-04-30 06:16 | -34.11852 | -59.05289 | 11324 ft | 328 kts | 137° |
| 2026-04-30 06:16 | -34.13382 | -59.03243 | 10908 ft | 328 kts | 137° |
| 2026-04-30 06:16 | -34.14907 | -59.01202 | 10492 ft | 327 kts | 136° |
| 2026-04-30 06:17 | -34.16427 | -58.99168 | 10171 ft | 323 kts | 136° |
| 2026-04-30 06:17 | -34.17906 | -58.97185 | 10048 ft | 312 kts | 136° |
| 2026-04-30 06:17 | -34.19322 | -58.95284 | 9832 ft | 305 kts | 136° |
| 2026-04-30 06:17 | -34.20763 | -58.93352 | 9423 ft | 304 kts | 136° |
| 2026-04-30 06:18 | -34.22176 | -58.91457 | 9022 ft | 304 kts | 136° |
| 2026-04-30 06:18 | -34.23564 | -58.89597 | 8658 ft | 301 kts | 136° |
| 2026-04-30 06:18 | -34.24963 | -58.87724 | 8302 ft | 298 kts | 136° |
| 2026-04-30 06:18 | -34.26356 | -58.85857 | 7927 ft | 297 kts | 136° |
| 2026-04-30 06:19 | -34.27736 | -58.84007 | 7489 ft | 296 kts | 135° |
| 2026-04-30 06:19 | -34.29106 | -58.82166 | 7117 ft | 295 kts | 135° |
| 2026-04-30 06:19 | -34.30471 | -58.80330 | 6782 ft | 291 kts | 135° |
| 2026-04-30 06:19 | -34.31821 | -58.78510 | 6345 ft | 289 kts | 135° |
| 2026-04-30 06:20 | -34.33138 | -58.76727 | 5962 ft | 279 kts | 134° |
| 2026-04-30 06:20 | -34.34407 | -58.75010 | 5613 ft | 268 kts | 134° |
| 2026-04-30 06:20 | -34.35631 | -58.73357 | 5279 ft | 258 kts | 134° |
| 2026-04-30 06:20 | -34.36813 | -58.71765 | 4958 ft | 249 kts | 134° |
| 2026-04-30 06:21 | -34.37954 | -58.70228 | 4639 ft | 242 kts | 134° |
| 2026-04-30 06:21 | -34.39060 | -58.68735 | 4326 ft | 235 kts | 134° |
| 2026-04-30 06:21 | -34.40138 | -58.67281 | 4030 ft | 229 kts | 133° |
| 2026-04-30 06:21 | -34.41186 | -58.65865 | 3730 ft | 223 kts | 133° |
| 2026-04-30 06:22 | -34.42216 | -58.64473 | 3424 ft | 219 kts | 133° |
| 2026-04-30 06:22 | -34.43239 | -58.63092 | 3147 ft | 218 kts | 133° |
| 2026-04-30 06:22 | -34.44236 | -58.61743 | 3005 ft | 211 kts | 133° |
| 2026-04-30 06:22 | -34.45188 | -58.60453 | 2996 ft | 201 kts | 133° |
| 2026-04-30 06:23 | -34.46112 | -58.59201 | 2999 ft | 198 kts | 132° |
| 2026-04-30 06:23 | -34.46933 | -58.57871 | 2819 ft | 195 kts | 122° |
| 2026-04-30 06:23 | -34.47610 | -58.56520 | 2716 ft | 185 kts | 123° |
| 2026-04-30 06:23 | -34.48301 | -58.55230 | 2523 ft | 181 kts | 124° |
| 2026-04-30 06:24 | -34.49006 | -58.53954 | 2296 ft | 178 kts | 124° |
| 2026-04-30 06:24 | -34.49674 | -58.52757 | 2086 ft | 165 kts | 124° |
| 2026-04-30 06:24 | -34.50283 | -58.51667 | 1857 ft | 148 kts | 124° |
| 2026-04-30 06:24 | -34.50840 | -58.50672 | 1668 ft | 138 kts | 124° |
| 2026-04-30 06:25 | -34.51372 | -58.49722 | 1483 ft | 135 kts | 124° |
| 2026-04-30 06:25 | -34.51904 | -58.48770 | 1308 ft | 134 kts | 124° |
| 2026-04-30 06:25 | -34.52424 | -58.47841 | 1127 ft | 133 kts | 124° |
| 2026-04-30 06:25 | -34.52941 | -58.46916 | 950 ft | 132 kts | 124° |
| 2026-04-30 06:26 | -34.53455 | -58.45997 | 758 ft | 131 kts | 124° |
| 2026-04-30 06:26 | -34.53966 | -58.45081 | 582 ft | 131 kts | 124° |
| 2026-04-30 06:26 | -34.54476 | -58.44169 | 398 ft | 130 kts | 124° |
| 2026-04-30 06:26 | -34.54986 | -58.43257 | 217 ft | 130 kts | 124° |
| 2026-04-30 06:27 | -34.55493 | -58.42348 | 37 ft | 129 kts | 123° |
| 2026-04-30 06:27 | -34.55908 | -58.41601 | 24 ft | 70 kts | 124° |
| 2026-04-30 06:27 | -34.56019 | -58.41402 | 26 ft | 4 kts | 123° |
| 2026-04-30 06:27 | -34.56018 | -58.41367 | 27 ft | 5 kts | 68° |
| 2026-04-30 06:28 | -34.55989 | -58.41336 | 27 ft | 6 kts | 33° |
| 2026-04-30 06:28 | -34.55946 | -58.41301 | 27 ft | 8 kts | 33° |
| 2026-04-30 06:28 | -34.55895 | -58.41282 | 27 ft | 5 kts | 15° |
| 2026-04-30 06:28 | -34.55887 | -58.41280 | 27 ft | 2 kts | 15° |
| 2026-04-30 06:29 | -34.55864 | -58.41273 | 27 ft | 5 kts | 11° |
| 2026-04-30 06:29 | -34.55831 | -58.41290 | 27 ft | 6 kts | 312° |
| 2026-04-30 06:29 | -34.55811 | -58.41312 | 27 ft | 2 kts | 358° |
| 2026-04-30 06:29 | -34.55791 | -58.41291 | 27 ft | 5 kts | 41° |
| 2026-04-30 06:30 | -34.55782 | -58.41282 | 27 ft | 1 kts | 41° |
| 2026-04-30 06:30 | -34.55781 | -58.41281 | 27 ft | 0 kts | 41° |